createdAt,value
2023-04-12T00:04:15.715Z,99963.13
2023-04-12T00:09:13.230Z,99956.16
2023-04-12T00:14:09.918Z,99957.06
2023-04-12T00:19:06.641Z,99947.19
2023-04-12T00:24:04.237Z,99939.84
2023-04-12T00:29:00.732Z,99927.88
2023-04-12T00:33:58.121Z,99925.41
2023-04-12T00:38:57.010Z,99925.00
2023-04-12T00:43:54.744Z,99912.19
2023-04-12T00:48:51.604Z,99903.00
2023-04-12T00:53:48.737Z,99902.78
2023-04-12T00:58:45.494Z,99909.84
2023-04-12T01:03:43.355Z,99898.94
2023-04-12T01:08:47.133Z,99895.41
2023-04-12T01:13:46.920Z,99894.56
2023-04-12T01:18:49.111Z,99885.44
2023-04-12T01:23:58.770Z,99885.78
2023-04-12T01:28:57.250Z,99881.63
2023-04-12T01:33:54.527Z,99896.44
2023-04-12T01:38:51.772Z,99889.66
2023-04-12T01:43:48.624Z,99882.00
2023-04-12T01:48:49.077Z,99881.00
2023-04-12T01:53:48.705Z,99873.69
2023-04-12T01:58:47.529Z,99875.38
2023-04-12T02:03:45.621Z,99887.31
2023-04-12T02:08:43.006Z,99887.59
2023-04-12T02:13:39.665Z,99879.00
2023-04-12T02:18:36.259Z,99876.41
2023-04-12T02:23:33.891Z,99877.94
2023-04-12T02:28:31.293Z,99874.41
2023-04-12T02:33:28.580Z,99867.34
2023-04-12T02:38:28.122Z,99872.47
2023-04-12T02:43:26.020Z,99872.41
2023-04-12T02:48:30.315Z,99878.53
2023-04-12T02:53:27.378Z,99872.47
2023-04-12T02:58:39.128Z,99858.31
2023-04-12T03:03:38.405Z,99866.81
2023-04-12T03:08:52.876Z,99866.25
2023-04-12T03:13:49.641Z,99867.34
2023-04-12T03:18:48.406Z,99863.50
2023-04-12T03:23:45.504Z,99859.00
2023-04-12T03:28:48.048Z,99863.88
2023-04-12T03:33:45.539Z,99843.94
2023-04-12T03:38:51.998Z,99860.88
2023-04-12T03:43:51.040Z,99858.06
2023-04-12T03:48:49.381Z,99869.88
2023-04-12T03:53:46.473Z,99872.19
2023-04-12T03:58:46.251Z,99874.09
2023-04-12T04:03:44.948Z,99878.97
2023-04-12T04:09:03.173Z,99856.06
2023-04-12T04:14:04.753Z,99873.63
2023-04-12T04:19:01.922Z,99882.53
2023-04-12T04:24:00.484Z,99896.28
2023-04-12T04:29:02.918Z,99903.78
2023-04-12T04:34:06.136Z,99902.25
2023-04-12T04:39:06.904Z,99912.19
2023-04-12T04:44:08.966Z,99906.88
2023-04-12T04:49:07.811Z,99915.44
2023-04-12T04:54:05.248Z,99920.75
2023-04-12T04:59:03.581Z,99911.78
2023-04-12T05:04:00.846Z,99907.44
2023-04-12T05:09:00.930Z,99908.56
2023-04-12T05:13:59.925Z,99913.69
2023-04-12T05:18:56.990Z,99917.56
2023-04-12T05:23:53.797Z,99932.63
2023-04-12T05:28:51.655Z,99930.50
2023-04-12T05:33:52.923Z,99928.88
2023-04-12T05:38:51.672Z,99934.41
2023-04-12T05:43:48.495Z,99938.47
2023-04-12T05:48:46.316Z,99929.41
2023-04-12T05:53:43.009Z,99925.88
2023-04-12T05:58:42.974Z,99919.25
2023-04-12T06:03:41.362Z,99915.56
2023-04-12T06:08:40.970Z,99906.84
2023-04-12T06:13:41.365Z,99903.94
2023-04-12T06:18:38.687Z,99915.00
2023-04-12T06:23:40.281Z,99917.63
2023-04-12T06:34:12.042Z,99916.78
2023-04-12T06:45:03.797Z,99924.22
2023-04-12T06:57:34.132Z,99908.53
2023-04-12T07:08:34.145Z,99913.38
2023-04-12T07:20:22.729Z,99893.44
2023-04-12T07:44:34.646Z,99930.09
2023-04-12T07:57:34.952Z,99929.94
2023-04-12T08:11:12.530Z,99922.94
2023-04-12T08:27:51.928Z,99927.00
2023-04-12T08:32:48.866Z,99923.91
2023-04-12T08:37:48.513Z,99921.53
2023-04-12T08:42:47.448Z,99922.44
2023-04-12T08:47:45.086Z,99932.00
2023-04-12T08:52:42.752Z,99930.66
2023-04-12T08:57:41.160Z,99922.25
2023-04-12T09:02:47.464Z,99912.44
2023-04-12T09:07:44.927Z,99915.22
2023-04-12T09:12:51.716Z,99912.81
2023-04-12T09:17:51.814Z,99918.53
2023-04-12T09:22:54.959Z,99912.69
2023-04-12T09:27:52.394Z,99901.66
2023-04-12T09:32:49.720Z,99884.63
2023-04-12T09:37:46.567Z,99903.69
2023-04-12T09:42:50.713Z,99898.72
2023-04-12T09:47:50.050Z,99904.56
2023-04-12T09:52:46.658Z,99900.69
2023-04-12T09:57:44.162Z,99913.97
2023-04-12T10:02:45.112Z,99911.78
2023-04-12T10:07:43.859Z,99912.03
2023-04-12T10:12:41.408Z,99907.03
2023-04-12T10:17:41.349Z,99905.88
2023-04-12T10:22:39.829Z,99909.09
2023-04-12T10:27:36.688Z,99908.66
2023-04-12T10:32:35.447Z,99909.69
2023-04-12T10:37:47.258Z,99911.47
2023-04-12T10:42:44.765Z,99911.38
2023-04-12T10:47:58.489Z,99909.66
2023-04-12T10:53:14.899Z,99911.00
2023-04-12T10:58:32.375Z,99903.97
2023-04-12T11:03:32.237Z,99910.66
2023-04-12T11:08:29.902Z,99889.72
2023-04-12T11:13:56.988Z,99907.47
2023-04-12T11:18:53.875Z,99904.84
2023-04-12T11:23:51.000Z,99901.81
2023-04-12T11:28:49.635Z,99902.94
2023-04-12T11:33:46.999Z,99903.91
2023-04-12T11:38:45.628Z,99897.34
2023-04-12T11:43:42.416Z,99896.34
2023-04-12T11:48:39.382Z,99905.09
2023-04-12T11:53:39.812Z,99910.19
2023-04-12T11:58:36.574Z,99911.88
2023-04-12T12:03:33.380Z,99909.31
2023-04-12T12:08:33.669Z,99890.25
2023-04-12T12:13:44.232Z,99903.13
2023-04-12T12:18:41.086Z,99919.84
2023-04-12T12:23:41.486Z,99919.03
2023-04-12T12:28:38.816Z,99918.56
2023-04-12T12:33:46.663Z,99909.38
2023-04-12T12:38:43.957Z,99908.22
2023-04-12T12:43:43.932Z,99917.59
2023-04-12T12:48:57.903Z,99919.88
2023-04-12T12:53:54.596Z,99910.63
2023-04-12T12:58:51.199Z,99913.22
2023-04-12T13:03:48.706Z,99913.78
2023-04-12T13:08:46.137Z,99906.72
2023-04-12T13:13:43.958Z,99909.97
2023-04-12T13:18:40.619Z,99909.53
2023-04-12T13:23:38.129Z,99910.00
2023-04-12T13:28:35.022Z,99914.88
2023-04-12T13:33:32.972Z,99917.69
2023-04-12T13:38:35.101Z,99930.88
2023-04-12T13:43:32.728Z,99930.78
2023-04-12T13:48:31.452Z,99929.59
2023-04-12T13:53:28.231Z,99927.50
2023-04-12T13:58:26.541Z,99924.13
2023-04-12T14:03:24.088Z,99929.97
2023-04-12T14:08:23.636Z,99937.97
2023-04-12T14:13:21.395Z,99942.03
2023-04-12T14:18:18.655Z,99947.56
2023-04-12T14:23:17.738Z,99949.44
2023-04-12T14:28:16.566Z,99943.44
2023-04-12T14:33:13.382Z,99936.00
2023-04-12T14:38:10.093Z,99937.97
2023-04-12T14:43:07.469Z,99937.91
2023-04-12T14:48:04.148Z,99922.66
2023-04-12T14:53:00.901Z,99932.44
2023-04-12T14:58:06.740Z,99961.97
2023-04-12T15:03:04.941Z,99964.25
2023-04-12T15:08:03.104Z,99966.97
2023-04-12T15:12:59.624Z,99970.81
2023-04-12T15:17:58.824Z,99969.03
2023-04-12T15:23:02.580Z,99969.41
2023-04-12T15:28:04.242Z,99974.31
2023-04-12T15:33:01.098Z,99979.56
2023-04-12T15:38:08.623Z,99954.25
2023-04-12T15:43:05.742Z,99981.81
2023-04-12T15:48:02.466Z,99975.22
2023-04-12T15:52:59.103Z,99980.38
2023-04-12T15:57:56.687Z,99987.16
2023-04-12T16:02:55.670Z,99987.69
2023-04-12T16:07:53.315Z,99986.66
2023-04-12T16:12:50.400Z,99980.91
2023-04-12T16:17:47.954Z,99995.66
2023-04-12T16:22:44.831Z,100001.66
2023-04-12T16:27:41.568Z,100013.16
2023-04-12T16:32:38.713Z,100020.63
2023-04-12T16:37:36.983Z,100027.16
2023-04-12T16:42:33.887Z,100026.22
2023-04-12T16:47:30.786Z,100024.50
2023-04-12T16:52:27.853Z,100029.81
2023-04-12T16:57:25.380Z,100034.91
2023-04-12T17:02:25.459Z,100058.06
2023-04-12T17:07:32.463Z,100047.81
2023-04-12T17:12:29.636Z,100069.22
2023-04-12T17:17:27.128Z,100067.94
2023-04-12T17:22:23.740Z,100070.53
2023-04-12T17:27:20.787Z,100070.22
2023-04-12T17:32:21.664Z,100079.53
2023-04-12T17:37:18.369Z,100084.22
2023-04-12T17:42:15.073Z,100089.06
2023-04-12T17:47:11.760Z,100084.34
2023-04-12T17:52:10.379Z,100089.09
2023-04-12T17:57:07.092Z,100094.06
2023-04-12T18:02:06.526Z,100088.81
2023-04-12T18:07:08.915Z,100091.22
2023-04-12T18:12:06.315Z,100106.28
2023-04-12T18:17:02.932Z,100111.28
2023-04-12T18:22:00.055Z,100115.38
2023-04-12T18:26:58.568Z,100109.41
2023-04-12T18:31:56.089Z,100112.22
2023-04-12T18:36:53.068Z,100112.81
2023-04-12T18:41:49.810Z,100114.44
2023-04-12T18:46:46.542Z,100123.00
2023-04-12T18:51:44.130Z,100133.88
2023-04-12T18:56:41.919Z,100133.22
2023-04-12T19:01:38.540Z,100138.47
2023-04-12T19:06:35.442Z,100156.28
2023-04-12T19:11:35.523Z,100154.09
2023-04-12T19:16:33.433Z,100163.78
2023-04-12T19:21:30.912Z,100159.38
2023-04-12T19:26:28.265Z,100166.09
2023-04-12T19:31:25.769Z,100149.72
2023-04-12T19:36:23.870Z,100148.66
2023-04-12T19:41:21.140Z,100174.03
2023-04-12T19:46:18.040Z,100170.91
2023-04-12T19:51:15.433Z,100180.78
2023-04-12T19:56:12.609Z,100180.53
2023-04-12T20:01:09.600Z,100189.09
2023-04-12T20:06:06.366Z,100190.69
2023-04-12T20:11:03.870Z,100189.00
2023-04-12T20:16:00.628Z,100189.88
2023-04-12T20:20:57.577Z,100200.53
2023-04-12T20:25:54.847Z,100202.56
2023-04-12T20:30:52.638Z,100199.88
2023-04-12T20:35:49.489Z,100199.72
2023-04-12T20:40:46.396Z,100209.56
2023-04-12T20:45:42.933Z,100227.31
2023-04-12T20:50:40.746Z,100231.03
2023-04-12T20:55:37.553Z,100235.31
2023-04-12T21:00:34.132Z,100247.81
2023-04-12T21:05:33.056Z,100250.72
2023-04-12T21:10:32.075Z,100253.41
2023-04-12T21:15:34.769Z,100248.34
2023-04-12T21:20:33.714Z,100252.13
2023-04-12T21:25:31.073Z,100250.13
2023-04-12T21:30:29.682Z,100253.50
2023-04-12T21:35:26.383Z,100248.31
2023-04-12T21:40:26.492Z,100256.13
2023-04-12T21:45:25.428Z,100259.69
2023-04-12T21:50:23.461Z,100263.06
2023-04-12T21:55:20.844Z,100268.88
2023-04-12T22:00:17.823Z,100272.81
2023-04-12T22:05:15.248Z,100267.63
2023-04-12T22:10:13.995Z,100263.38
2023-04-12T22:15:12.954Z,100261.59
2023-04-12T22:20:10.472Z,100264.50
2023-04-12T22:25:11.326Z,100278.31
2023-04-12T22:30:09.540Z,100268.19
2023-04-12T22:35:08.916Z,100270.00
2023-04-12T22:40:11.024Z,100269.09
2023-04-12T22:45:10.648Z,100269.09
2023-04-12T22:50:07.962Z,100270.25
2023-04-12T22:55:04.927Z,100271.50
2023-04-12T23:00:01.693Z,100271.50
2023-04-12T23:04:59.222Z,100276.94
2023-04-12T23:09:56.011Z,100269.69
2023-04-12T23:14:54.821Z,100278.25
2023-04-12T23:19:51.517Z,100281.41
2023-04-12T23:24:50.580Z,100277.19
2023-04-12T23:29:47.491Z,100289.91
2023-04-12T23:34:44.200Z,100301.41
2023-04-12T23:39:41.008Z,100298.50
2023-04-12T23:44:38.596Z,100296.31
2023-04-12T23:49:35.317Z,100304.84
2023-04-12T23:54:31.904Z,100311.88
2023-04-12T23:59:28.592Z,100311.44
